Muscle Shoals, AL (35661)

1:34 PM CST on February 12, 2016 (GMT -0600)
Jackson Heights | | Change Station
CLOSE
Current Station
Personal Weather Station
Location: Muscle Shoals, AL
Elevation: 525 ft
Nearby Weather Stations

Elev 525 ft 34.75 °N, 87.64 °W | Updated 40 seconds ago

Clear
Clear
57.7 °F
Feels Like 57.7 °F
N
0.2
Wind Variable Wind from North
Gusts 2.5 mph

Today
High -- | Low -- °F
--% Chance of Precip.
Yesterday
High -- | Low -- °F
Precip. -- in
Pressure 30.17 in
Visibility 10.0 miles
Clouds Clear
Dew Point 27 °F
Humidity 31%
Rainfall 0.00 in
Snow Depth Not available.
6:39 AM 5:30 PM
Waxing Crescent, 23% visible
METAR KMSL 121853Z AUTO 29015G22KT 10SM CLR 13/M03 A3016 RMK AO2 SLP215 T01331028
Pressure 30.17 in
Visibility 10.0 miles
Clouds Clear
Dew Point 27 °F
Humidity 31%
Rainfall 0.00 in
Snow Depth Not available.
6:39 AM 5:30 PM
Waxing Crescent, 23% visible
METAR KMSL 121853Z AUTO 29015G22KT 10SM CLR 13/M03 A3016 RMK AO2 SLP215 T01331028

10-Day Weather Forecast

Almanac

Astronomy

Feb. 12, 2016 Rise Set
Actual Time
Civil Twilight
Nautical Twilight
Astronomical Twilight
Moon
Length of Visible Light
Length of Day
Tomorrow will be .
, % of the Moon is Illuminated

Today's Extremes

State Highs State Lows

Community

WunderPhotos

Upload Photos

1,892,380 photos uploaded!

WunderBlog® & News

Nearby

Air Quality

  Air Quality AQ Index Pollutant
Not available.

Snow Depth

Station Depth Elevation

Earthquake Activity

City Distance Mag. Time & Date
Minimum magnitude displayed is 2.5.

Coastal Water Temperatures

Place Temperature

Stations

Nearby Weather Stations

Station Location Temp. Windchill Dew Point Humidity Wind Precip. Elev Updated Type
                   

Watches & Warnings

There are currently no watches in effect.